Time;durP1;ratioP1;P1;durP2;ratioP2;P2;SDS_P1;SDS_P2;PMS_P1;PMS_P2;Temp;Humidity;BMP_temperature;BMP_pressure;BME280_temperature;BME280_humidity;BME280_pressure;Samples;Min_cycle;Max_cycle;Signal;HPM_P1;HPM_P2
2021/04/20 00:01:13;;;;;;;17.27;10.75;;;;;;;7.74;100.00;100907.06;3573387;40;20093;-44
2021/04/20 00:03:40;;;;;;;21.95;11.30;;;;;;;7.52;100.00;100902.75;3574287;40;20060;-43
2021/04/20 00:06:08;;;;;;;19.13;10.57;;;;;;;7.41;100.00;100907.41;3573676;40;20443;-43
2021/04/20 00:08:36;;;;;;;16.52;10.77;;;;;;;7.45;100.00;100900.78;3574199;40;20540;-44
2021/04/20 00:11:04;;;;;;;16.90;11.00;;;;;;;7.52;100.00;100903.63;3574091;40;20045;-44
2021/04/20 00:13:31;;;;;;;20.50;11.40;;;;;;;7.34;100.00;100901.19;3571451;40;20330;-45
2021/04/20 00:15:58;;;;;;;17.85;10.25;;;;;;;7.64;100.00;100898.19;3573938;40;20748;-45
2021/04/20 00:18:24;;;;;;;15.45;10.05;;;;;;;7.93;100.00;100895.91;3574178;40;20068;-44
2021/04/20 00:20:54;;;;;;;14.73;9.25;;;;;;;8.22;100.00;100890.25;3573975;40;20048;-45
2021/04/20 00:23:20;;;;;;;16.35;10.00;;;;;;;7.59;100.00;100882.69;3573830;40;20053;-46
2021/04/20 00:25:47;;;;;;;17.25;11.07;;;;;;;7.42;100.00;100883.69;3573811;40;20415;-43
2021/04/20 00:28:25;;;;;;;16.05;12.00;;;;;;;7.30;100.00;100883.16;3572961;40;20087;-44
2021/04/20 00:30:52;;;;;;;16.42;11.48;;;;;;;7.38;100.00;100884.34;3573839;40;20053;-45
2021/04/20 00:33:19;;;;;;;20.30;11.38;;;;;;;7.28;100.00;100900.94;3573870;40;20100;-44
2021/04/20 00:35:46;;;;;;;22.42;11.70;;;;;;;7.18;100.00;100909.00;3573907;40;20060;-46
2021/04/20 00:38:13;;;;;;;17.20;11.60;;;;;;;7.13;100.00;100911.34;3573089;40;20160;-45
2021/04/20 00:40:40;;;;;;;18.38;12.15;;;;;;;7.23;100.00;100909.19;3574079;40;20108;-45
2021/04/20 00:43:06;;;;;;;15.02;10.93;;;;;;;7.50;100.00;100907.81;3573705;40;20040;-45
2021/04/20 00:45:34;;;;;;;15.73;11.18;;;;;;;7.26;100.00;100900.00;3574138;40;20056;-44
2021/04/20 00:48:04;;;;;;;14.65;10.35;;;;;;;7.12;100.00;100899.41;3573898;40;20057;-44
2021/04/20 00:50:34;;;;;;;16.90;11.43;;;;;;;6.92;100.00;100902.75;3571457;40;20088;-45
2021/04/20 00:53:00;;;;;;;16.70;11.15;;;;;;;6.85;100.00;100894.00;3573592;40;20068;-45
2021/04/20 00:55:27;;;;;;;17.63;12.32;;;;;;;6.79;100.00;100886.06;3573688;40;20037;-44
2021/04/20 00:57:54;;;;;;;15.23;11.27;;;;;;;6.83;100.00;100887.97;3573815;40;20052;-45
2021/04/20 01:00:27;;;;;;;16.90;12.20;;;;;;;6.74;100.00;100896.88;3573655;40;20065;-44
2021/04/20 01:02:54;;;;;;;16.35;12.45;;;;;;;6.61;100.00;100891.25;3573399;40;20061;-44
2021/04/20 01:05:25;;;;;;;16.50;11.75;;;;;;;6.76;100.00;100891.06;3573678;40;20069;-45
2021/04/20 01:07:57;;;;;;;15.88;10.90;;;;;;;6.63;100.00;100888.75;3573584;40;20052;-47
2021/04/20 01:10:25;;;;;;;16.42;12.73;;;;;;;6.47;100.00;100883.78;3573934;40;20044;-43
2021/04/20 01:12:52;;;;;;;20.48;14.20;;;;;;;6.49;100.00;100889.81;3573872;40;20115;-46
2021/04/20 01:15:19;;;;;;;18.05;12.35;;;;;;;6.65;100.00;100889.69;3573852;40;20459;-44
2021/04/20 01:17:46;;;;;;;20.23;12.57;;;;;;;6.41;100.00;100876.75;3573714;40;20040;-44
2021/04/20 01:20:13;;;;;;;15.05;11.52;;;;;;;6.46;100.00;100892.22;3572832;40;20053;-46
2021/04/20 01:22:42;;;;;;;20.60;13.15;;;;;;;6.41;100.00;100888.59;3573467;40;20057;-44
2021/04/20 01:25:11;;;;;;;19.52;13.52;;;;;;;6.46;100.00;100885.44;3573353;40;20419;-46
2021/04/20 01:27:37;;;;;;;23.00;15.50;;;;;;;6.34;100.00;100878.16;3574855;40;20069;-43
2021/04/20 01:30:07;;;;;;;25.52;14.93;;;;;;;6.24;100.00;100878.53;3577031;40;20061;-43
2021/04/20 01:32:43;;;;;;;19.63;14.40;;;;;;;6.09;100.00;100873.59;3574870;40;20084;-43
2021/04/20 01:35:12;;;;;;;19.98;14.63;;;;;;;6.05;100.00;100875.91;3574396;40;20053;-44
2021/04/20 01:37:39;;;;;;;18.02;14.70;;;;;;;6.09;100.00;100871.06;3573814;40;20081;-43
2021/04/20 01:40:07;;;;;;;16.80;13.40;;;;;;;6.03;100.00;100873.31;3573465;40;20109;-46
2021/04/20 01:42:34;;;;;;;18.58;12.70;;;;;;;5.93;100.00;100871.16;3573622;40;20721;-44
2021/04/20 01:45:04;;;;;;;17.38;12.90;;;;;;;6.28;100.00;100871.91;3573520;40;20089;-44
2021/04/20 01:47:32;;;;;;;19.95;13.63;;;;;;;5.99;100.00;100865.47;3571065;40;20041;-45
2021/04/20 01:50:00;;;;;;;18.17;13.73;;;;;;;5.82;100.00;100859.56;3573624;40;20056;-45
2021/04/20 01:52:27;;;;;;;18.67;14.13;;;;;;;5.74;100.00;100858.34;3573412;40;20355;-43
2021/04/20 01:54:54;;;;;;;18.70;13.50;;;;;;;5.93;100.00;100863.53;3573720;40;20073;-44
2021/04/20 01:57:22;;;;;;;19.00;12.93;;;;;;;5.68;100.00;100858.91;3573420;40;20065;-47
2021/04/20 01:59:49;;;;;;;17.42;13.48;;;;;;;5.54;100.00;100854.81;3573318;40;20041;-47
2021/04/20 02:02:16;;;;;;;19.70;12.40;;;;;;;5.90;100.00;100854.84;3573245;40;20053;-47
2021/04/20 02:04:43;;;;;;;18.00;11.98;;;;;;;5.94;100.00;100850.00;3573590;40;20061;-44
2021/04/20 02:07:11;;;;;;;18.35;12.57;;;;;;;5.87;100.00;100851.38;3573604;40;20145;-44
2021/04/20 02:09:39;;;;;;;21.25;14.32;;;;;;;5.57;100.00;100847.38;3573574;40;20068;-46
2021/04/20 02:12:06;;;;;;;19.70;14.70;;;;;;;5.55;100.00;100843.91;3573499;40;20113;-47
2021/04/20 02:14:50;;;;;;;23.58;14.73;;;;;;;5.50;100.00;100847.84;3573437;40;20470;-46
2021/04/20 02:17:22;;;;;;;28.55;17.98;;;;;;;5.43;100.00;100851.78;3572845;40;20144;-46
2021/04/20 02:19:52;;;;;;;32.95;20.67;;;;;;;5.47;100.00;100855.34;3573426;40;20057;-46
2021/04/20 02:22:19;;;;;;;27.95;18.60;;;;;;;5.47;100.00;100853.66;3573358;40;20068;-45
2021/04/20 02:24:46;;;;;;;31.13;18.95;;;;;;;5.69;100.00;100852.19;3573532;40;20504;-45
2021/04/20 02:27:13;;;;;;;24.92;16.77;;;;;;;5.70;100.00;100854.78;3573897;40;20060;-45
2021/04/20 02:29:39;;;;;;;20.83;15.05;;;;;;;5.99;100.00;100850.22;3573823;40;20053;-46
2021/04/20 02:32:06;;;;;;;19.85;14.30;;;;;;;5.74;100.00;100846.50;3573749;40;20096;-49
2021/04/20 02:34:33;;;;;;;24.05;16.42;;;;;;;5.40;100.00;100848.19;3573762;40;20060;-46
2021/04/20 02:37:00;;;;;;;23.08;15.88;;;;;;;5.20;100.00;100849.78;3573301;40;20326;-46
2021/04/20 02:39:27;;;;;;;22.95;15.98;;;;;;;5.13;100.00;100841.00;3573225;40;20056;-45
2021/04/20 02:41:54;;;;;;;27.63;17.40;;;;;;;5.09;100.00;100844.16;3573076;40;20072;-43
2021/04/20 02:44:22;;;;;;;21.80;15.73;;;;;;;5.05;100.00;100847.34;3572989;40;20049;-44
2021/04/20 02:46:49;;;;;;;23.15;16.90;;;;;;;4.97;100.00;100846.09;3573333;40;20579;-44
2021/04/20 02:49:15;;;;;;;25.92;17.83;;;;;;;4.86;100.00;100848.09;3573011;40;20160;-46
2021/04/20 02:51:43;;;;;;;29.42;18.35;;;;;;;4.80;100.00;100848.63;3573313;40;20056;-45
2021/04/20 02:54:11;;;;;;;21.05;15.00;;;;;;;4.91;100.00;100849.19;3573073;40;20049;-44
2021/04/20 02:56:39;;;;;;;24.48;15.80;;;;;;;4.77;100.00;100852.69;3573057;40;20049;-44
2021/04/20 02:59:10;;;;;;;21.48;14.57;;;;;;;4.79;100.00;100840.94;3572891;40;20073;-44
2021/04/20 03:01:39;;;;;;;21.48;14.80;;;;;;;4.79;100.00;100840.94;3572965;40;20051;-45
2021/04/20 03:04:06;;;;;;;22.70;15.30;;;;;;;4.87;100.00;100844.75;3572729;40;20513;-46
2021/04/20 03:06:32;;;;;;;22.95;15.00;;;;;;;4.79;100.00;100840.94;3572824;40;20076;-44
2021/04/20 03:08:59;;;;;;;19.40;14.70;;;;;;;4.64;100.00;100845.25;3572982;40;20056;-46
2021/04/20 03:11:33;;;;;;;20.75;14.27;;;;;;;4.70;100.00;100845.53;3573034;40;20061;-45
2021/04/20 03:14:05;;;;;;;19.45;14.02;;;;;;;5.01;100.00;100845.44;3573025;40;20125;-46
2021/04/20 03:16:33;;;;;;;25.58;15.02;;;;;;;4.75;100.00;100844.09;3570604;40;20604;-45
2021/04/20 03:19:03;;;;;;;21.20;15.38;;;;;;;4.76;100.00;100838.22;3572749;40;20056;-45
2021/04/20 03:21:31;;;;;;;21.95;14.48;;;;;;;4.60;100.00;100829.84;3573268;40;20330;-44
2021/04/20 03:24:00;;;;;;;22.42;14.55;;;;;;;4.65;100.00;100831.75;3572657;40;20069;-44
2021/04/20 03:26:38;;;;;;;22.48;14.20;;;;;;;4.54;100.00;100827.00;3572925;40;20089;-45
2021/04/20 03:29:09;;;;;;;20.58;13.35;;;;;;;4.61;100.00;100820.56;3572488;40;20060;-43
2021/04/20 03:31:41;;;;;;;20.02;13.15;;;;;;;4.83;100.00;100827.63;3570267;40;20181;-46
2021/04/20 03:34:32;;;;;;;22.13;12.75;;;;;;;4.56;100.00;100822.00;3572438;40;20092;-44
2021/04/20 03:37:04;;;;;;;22.20;13.55;;;;;;;4.43;100.00;100817.09;3572667;40;20433;-45
2021/04/20 03:39:38;;;;;;;24.70;15.13;;;;;;;4.33;100.00;100824.19;3570336;40;20056;-44
2021/04/20 03:42:10;;;;;;;23.02;14.30;;;;;;;4.29;100.00;100812.16;3572552;40;20044;-45
2021/04/20 03:44:46;;;;;;;19.60;14.18;;;;;;;4.34;100.00;100809.88;3570764;40;20103;-44
2021/04/20 03:47:21;;;;;;;24.88;13.70;;;;;;;4.42;100.00;100815.34;3568028;40;20064;-45
2021/04/20 03:49:50;;;;;;;20.45;13.05;;;;;;;4.31;100.00;100810.59;3572827;40;20056;-44
2021/04/20 03:52:22;;;;;;;21.02;13.38;;;;;;;4.41;100.00;100814.47;3572305;40;20044;-44
2021/04/20 03:54:51;;;;;;;19.33;13.27;;;;;;;4.37;100.00;100809.16;3572530;40;20065;-45
2021/04/20 03:57:22;;;;;;;24.20;14.70;;;;;;;4.36;100.00;100812.50;3572785;40;20112;-48
2021/04/20 03:59:51;;;;;;;24.77;13.07;;;;;;;4.30;100.00;100808.00;3572814;40;20072;-45
2021/04/20 04:02:19;;;;;;;25.58;12.98;;;;;;;4.29;100.00;100811.28;3573380;40;20060;-44
2021/04/20 04:04:45;;;;;;;20.13;12.18;;;;;;;4.36;100.00;100815.03;3574283;40;20081;-46
2021/04/20 04:07:16;;;;;;;19.30;12.95;;;;;;;4.28;100.00;100810.41;3571697;40;20064;-44
2021/04/20 04:09:49;;;;;;;26.40;12.52;;;;;;;4.30;100.00;100824.06;3573189;40;20051;-44
2021/04/20 04:12:18;;;;;;;22.48;12.25;;;;;;;4.46;100.00;100833.34;3572974;40;20109;-45
2021/04/20 04:14:47;;;;;;;18.75;11.85;;;;;;;4.73;100.00;100831.34;3574263;40;20340;-45
2021/04/20 04:17:16;;;;;;;21.35;11.63;;;;;;;4.73;100.00;100830.50;3573430;40;20442;-44
2021/04/20 04:19:47;;;;;;;18.05;12.30;;;;;;;4.52;100.00;100835.31;3574451;40;20047;-45
2021/04/20 04:22:18;;;;;;;24.95;13.57;;;;;;;4.38;100.00;100834.59;3572887;40;20061;-44
2021/04/20 04:24:49;;;;;;;17.55;11.75;;;;;;;4.40;100.00;100835.56;3574349;40;20443;-44
2021/04/20 04:27:20;;;;;;;17.65;12.68;;;;;;;4.74;100.00;100847.44;3573286;40;20399;-45
2021/04/20 04:29:48;;;;;;;23.63;11.50;;;;;;;4.65;100.00;100846.97;3573842;40;20100;-44
2021/04/20 04:32:19;;;;;;;20.80;11.85;;;;;;;5.10;100.00;100843.38;3573909;40;20128;-41
2021/04/20 04:34:49;;;;;;;18.50;11.25;;;;;;;4.94;100.00;100844.25;3573517;40;20053;-42
2021/04/20 04:37:18;;;;;;;15.77;11.05;;;;;;;5.04;100.00;100846.47;3572432;40;20057;-41
2021/04/20 04:39:45;;;;;;;16.92;10.63;;;;;;;5.25;100.00;100849.19;3573107;40;20045;-41
2021/04/20 04:42:13;;;;;;;15.80;10.23;;;;;;;5.59;100.00;100849.19;3569918;40;20060;-41
2021/04/20 04:44:40;;;;;;;16.50;11.00;;;;;;;5.20;100.00;100847.22;3572088;40;20322;-42
2021/04/20 04:47:07;;;;;;;18.13;10.90;;;;;;;5.04;100.00;100856.63;3574004;40;20076;-42
2021/04/20 04:49:36;;;;;;;16.42;11.02;;;;;;;4.87;100.00;100854.91;3573988;40;20055;-45
2021/04/20 04:52:04;;;;;;;19.23;10.65;;;;;;;4.69;100.00;100861.56;3562085;40;20063;-41
2021/04/20 04:54:32;;;;;;;15.50;10.98;;;;;;;4.60;100.00;100867.88;3545807;40;20421;-41
2021/04/20 04:57:01;;;;;;;18.27;12.30;;;;;;;4.49;100.00;100863.94;3554153;40;20053;-41
2021/04/20 04:59:30;;;;;;;21.65;12.25;;;;;;;4.56;100.00;100858.38;3573974;40;20112;-41
2021/04/20 05:01:56;;;;;;;25.77;14.00;;;;;;;4.56;100.00;100860.03;3573726;40;20044;-41
2021/04/20 05:04:25;;;;;;;21.55;13.07;;;;;;;4.55;100.00;100856.63;3573835;40;20134;-41
2021/04/20 05:06:52;;;;;;;24.30;14.25;;;;;;;4.55;100.00;100863.38;3574109;40;20712;-41
2021/04/20 05:09:23;;;;;;;26.15;14.55;;;;;;;4.65;100.00;100863.06;3574221;40;20079;-41
2021/04/20 05:11:52;;;;;;;20.73;13.80;;;;;;;4.73;100.00;100859.25;3573831;40;20635;-41
2021/04/20 05:14:22;;;;;;;23.02;13.57;;;;;;;4.82;100.00;100861.41;3573803;40;20595;-40
2021/04/20 05:16:51;;;;;;;22.73;13.50;;;;;;;4.88;100.00;100860.84;3573674;40;20055;-43
2021/04/20 05:19:41;;;;;;;20.63;11.68;;;;;;;5.02;100.00;100858.19;3573928;40;20053;-41
2021/04/20 05:22:11;;;;;;;23.35;14.10;;;;;;;5.05;100.00;100860.91;3573313;40;20057;-41
2021/04/20 05:24:38;;;;;;;17.52;11.88;;;;;;;5.39;100.00;100866.78;3574023;40;20355;-42
2021/04/20 05:27:06;;;;;;;18.20;13.20;;;;;;;5.35;100.00;100865.75;3573652;40;20057;-41
2021/04/20 05:29:37;;;;;;;25.98;12.32;;;;;;;5.65;100.00;100860.44;3571242;40;20083;-42
2021/04/20 05:32:04;;;;;;;19.92;12.10;;;;;;;5.48;100.00;100867.22;3573382;40;20056;-40
2021/04/20 05:34:31;;;;;;;21.63;13.13;;;;;;;5.45;100.00;100862.88;3571028;40;20053;-41
2021/04/20 05:36:58;;;;;;;22.38;11.70;;;;;;;5.54;100.00;100857.38;3573815;40;20049;-41
2021/04/20 05:39:24;;;;;;;24.33;12.45;;;;;;;5.61;100.00;100856.88;3573734;40;20065;-41
2021/04/20 05:41:51;;;;;;;21.42;11.32;;;;;;;6.12;100.00;100862.72;3573282;40;20060;-41
2021/04/20 05:44:18;;;;;;;19.75;10.88;;;;;;;6.02;100.00;100856.34;3573458;40;20599;-41
2021/04/20 05:46:49;;;;;;;18.35;10.02;;;;;;;6.10;100.00;100861.75;3574613;40;20079;-44
2021/04/20 05:49:19;;;;;;;21.02;12.15;;;;;;;6.52;100.00;100859.44;3576958;40;20081;-41
2021/04/20 05:51:46;;;;;;;18.70;11.98;;;;;;;6.26;100.00;100864.22;3578126;40;20049;-42
2021/04/20 05:54:13;;;;;;;20.80;11.60;;;;;;;6.39;100.00;100865.66;3575374;40;20064;-40
2021/04/20 05:56:41;;;;;;;21.70;12.88;;;;;;;6.29;100.00;100871.13;3575140;40;20077;-42
2021/04/20 05:59:08;;;;;;;18.35;10.13;;;;;;;7.00;100.00;100860.69;3573462;40;20076;-41
2021/04/20 06:01:39;;;;;;;21.52;10.75;;;;;;;6.86;100.00;100870.28;3573594;40;20068;-43
2021/04/20 06:04:08;;;;;;;21.88;10.30;;;;;;;7.58;100.00;100865.69;3573383;40;20045;-43
2021/04/20 06:06:39;;;;;;;22.45;10.10;;;;;;;7.12;100.00;100861.22;3573359;40;20049;-41
2021/04/20 06:09:09;;;;;;;17.40;9.45;;;;;;;7.46;100.00;100861.75;3564009;40;20084;-43
2021/04/20 06:11:38;;;;;;;17.52;9.60;;;;;;;7.73;100.00;100862.00;3573485;40;20091;-41
2021/04/20 06:14:06;;;;;;;21.08;10.88;;;;;;;7.57;100.00;100861.38;3573377;40;20397;-41
2021/04/20 06:16:35;;;;;;;16.67;9.32;;;;;;;7.55;100.00;100862.13;3571185;40;20052;-41
2021/04/20 06:19:02;;;;;;;18.70;10.05;;;;;;;7.61;100.00;100867.47;3573326;40;20064;-41
2021/04/20 06:21:30;;;;;;;18.30;10.57;;;;;;;7.70;100.00;100867.81;3573661;40;20334;-42
2021/04/20 06:24:02;;;;;;;15.90;9.45;;;;;;;8.04;100.00;100864.94;3572892;40;20068;-42
2021/04/20 06:26:32;;;;;;;16.35;9.48;;;;;;;8.21;99.97;100862.16;3573541;40;20049;-42
2021/04/20 06:29:01;;;;;;;16.35;9.63;;;;;;;8.33;98.72;100867.72;3573409;40;20142;-41
2021/04/20 06:31:28;;;;;;;16.20;9.73;;;;;;;8.52;98.02;100870.19;3573399;40;20068;-42
2021/04/20 06:33:55;;;;;;;15.65;8.27;;;;;;;8.76;95.03;100856.56;3572974;40;20049;-42
2021/04/20 06:36:22;;;;;;;19.85;9.07;;;;;;;8.80;92.83;100860.97;3573353;40;20458;-41
2021/04/20 06:38:49;;;;;;;16.50;8.60;;;;;;;8.71;91.50;100864.06;3573141;40;20081;-41
2021/04/20 06:41:22;;;;;;;17.25;9.30;;;;;;;8.71;94.32;100873.41;3573279;40;20054;-41
2021/04/20 06:43:59;;;;;;;19.73;8.68;;;;;;;9.49;92.50;100873.53;3573038;40;20055;-42
2021/04/20 06:46:43;;;;;;;19.10;9.00;;;;;;;9.43;87.91;100869.97;3572719;40;20061;-41
2021/04/20 06:49:16;;;;;;;15.73;9.18;;;;;;;9.66;90.66;100865.59;3572798;40;20048;-41
2021/04/20 06:51:49;;;;;;;16.05;8.68;;;;;;;10.05;87.61;100874.47;3573100;40;20051;-42
2021/04/20 06:54:27;;;;;;;18.73;8.07;;;;;;;10.18;88.12;100871.47;3572387;40;20063;-42
2021/04/20 06:57:02;;;;;;;14.63;7.53;;;;;;;11.44;83.25;100874.13;3573134;40;20057;-42
2021/04/20 06:59:36;;;;;;;13.18;7.90;;;;;;;11.23;79.35;100878.69;3573395;40;20072;-41
2021/04/20 07:02:19;;;;;;;18.63;8.05;;;;;;;12.68;77.60;100884.66;3572805;40;20061;-42
2021/04/20 07:04:50;;;;;;;13.15;7.00;;;;;;;12.59;77.72;100878.47;3571752;40;20130;-41
2021/04/20 07:07:32;;;;;;;11.55;6.35;;;;;;;12.72;74.71;100877.88;3572218;40;20085;-42
2021/04/20 07:10:21;;;;;;;14.85;7.60;;;;;;;12.03;79.23;100878.13;3573301;40;20322;-42
2021/04/20 07:12:48;;;;;;;17.25;8.00;;;;;;;11.32;83.66;100876.38;3571814;40;20069;-42
2021/04/20 07:15:21;;;;;;;15.18;7.95;;;;;;;11.45;81.35;100870.72;3571977;40;20331;-42
2021/04/20 07:18:17;;;;;;;14.45;7.68;;;;;;;10.75;85.91;100873.13;3573305;40;20056;-41
2021/04/20 07:21:21;;;;;;;15.05;8.30;;;;;;;10.63;83.72;100869.41;3571385;40;20049;-41
2021/04/20 07:24:03;;;;;;;19.05;8.43;;;;;;;10.34;86.16;100863.44;3571269;40;20086;-41
2021/04/20 07:27:11;;;;;;;17.25;8.07;;;;;;;10.62;85.38;100864.22;3572874;40;20053;-41
2021/04/20 07:29:50;;;;;;;15.73;8.00;;;;;;;11.80;81.97;100865.59;3544769;40;20104;-41
2021/04/20 07:32:27;;;;;;;14.38;7.28;;;;;;;12.48;79.44;100876.56;3571888;40;20080;-42
2021/04/20 07:35:26;;;;;;;11.50;6.85;;;;;;;13.09;73.99;100868.31;3572557;40;20053;-41
2021/04/20 07:37:59;;;;;;;12.38;7.38;;;;;;;12.89;75.32;100865.34;3572870;40;20445;-41
2021/04/20 07:41:03;;;;;;;15.57;7.28;;;;;;;13.12;72.27;100871.78;3574408;40;20057;-41
2021/04/20 07:44:21;;;;;;;14.32;7.38;;;;;;;12.88;74.25;100868.75;3573982;40;20385;-42
2021/04/20 07:46:58;;;;;;;10.35;7.40;;;;;;;12.91;74.70;100872.25;3557004;40;20057;-42
2021/04/20 07:49:44;;;;;;;14.75;8.00;;;;;;;13.11;73.45;100869.19;3573170;40;20450;-41
2021/04/20 07:52:19;;;;;;;13.50;7.10;;;;;;;13.06;74.41;100865.66;3573216;40;20076;-41
2021/04/20 07:54:55;;;;;;;18.75;7.90;;;;;;;13.08;75.25;100864.88;3574450;40;20358;-41
2021/04/20 07:57:24;;;;;;;12.10;7.30;;;;;;;12.56;78.07;100868.13;3573581;40;20049;-41
2021/04/20 08:00:15;;;;;;;12.38;7.47;;;;;;;12.75;78.99;100862.50;3574168;40;20415;-41
2021/04/20 08:03:07;;;;;;;15.30;8.20;;;;;;;13.07;74.89;100862.25;3572996;40;20053;-43
2021/04/20 08:06:02;;;;;;;14.35;7.78;;;;;;;11.81;77.81;100857.06;3573312;40;20061;-42
2021/04/20 08:08:31;;;;;;;15.98;7.10;;;;;;;12.79;75.74;100851.47;3574120;40;20049;-42
2021/04/20 08:11:11;;;;;;;18.85;8.50;;;;;;;12.72;74.32;100852.19;3574230;40;20402;-42
2021/04/20 08:13:50;;;;;;;17.48;8.60;;;;;;;12.74;75.77;100851.38;3572080;40;20441;-43
2021/04/20 08:16:33;;;;;;;12.38;9.07;;;;;;;12.70;77.71;100851.28;3573657;40;20402;-42
2021/04/20 08:19:09;;;;;;;19.55;8.93;;;;;;;12.97;75.97;100856.09;3574147;40;20133;-41
2021/04/20 08:21:39;;;;;;;13.15;8.68;;;;;;;12.72;76.22;100859.91;3572332;40;20064;-41
2021/04/20 08:24:11;;;;;;;18.15;9.38;;;;;;;12.72;76.39;100850.47;3573843;40;20048;-41
2021/04/20 08:26:45;;;;;;;15.70;9.10;;;;;;;12.77;77.24;100853.13;3572020;40;20112;-41
2021/04/20 08:29:24;;;;;;;13.48;8.32;;;;;;;12.74;75.91;100840.22;3573217;40;20044;-41
2021/04/20 08:32:22;;;;;;;16.48;8.20;;;;;;;13.14;75.66;100844.41;3573776;40;20033;-41
2021/04/20 08:34:54;;;;;;;15.88;8.88;;;;;;;13.45;73.32;100844.94;3566288;40;20092;-41
2021/04/20 08:37:25;;;;;;;12.27;8.35;;;;;;;13.52;70.38;100849.34;3574756;40;20065;-41
2021/04/20 08:40:06;;;;;;;12.93;8.65;;;;;;;13.93;71.25;100844.84;3574519;40;20057;-41
2021/04/20 08:42:45;;;;;;;14.07;8.90;;;;;;;14.44;70.34;100848.97;3572192;40;20381;-41
2021/04/20 08:45:14;;;;;;;15.73;8.70;;;;;;;15.52;65.47;100846.63;3574264;40;20085;-42
2021/04/20 08:47:58;;;;;;;12.30;7.63;;;;;;;17.42;60.31;100844.88;3574142;40;20134;-41
2021/04/20 08:50:27;;;;;;;13.65;8.07;;;;;;;18.14;57.42;100851.75;3574417;40;20080;-43
2021/04/20 08:53:31;;;;;;;14.32;8.63;;;;;;;18.89;55.15;100846.25;3573996;40;20049;-41
2021/04/20 08:56:42;;;;;;;10.52;7.50;;;;;;;17.03;59.47;100841.41;3573471;40;20487;-41
2021/04/20 08:59:27;;;;;;;16.70;9.27;;;;;;;15.63;62.78;100838.13;3562988;40;20077;-41
2021/04/20 09:02:21;;;;;;;14.52;9.50;;;;;;;15.02;68.38;100834.19;3574122;40;20075;-41
2021/04/20 09:05:15;;;;;;;12.57;8.73;;;;;;;15.37;68.01;100835.34;3572819;40;20053;-41
2021/04/20 09:07:52;;;;;;;14.05;9.00;;;;;;;15.45;68.42;100838.84;3572248;40;20057;-41
2021/04/20 09:10:22;;;;;;;14.68;9.40;;;;;;;15.22;68.67;100833.50;3573747;40;20446;-44
2021/04/20 09:12:53;;;;;;;13.45;8.38;;;;;;;15.28;68.24;100836.97;3574208;40;20093;-41
2021/04/20 09:15:20;;;;;;;15.77;9.60;;;;;;;15.33;66.63;100834.44;3574096;40;20688;-40
2021/04/20 09:17:51;;;;;;;19.92;9.98;;;;;;;14.81;70.92;100822.78;3574238;40;20189;-41
2021/04/20 09:20:48;;;;;;;12.93;9.35;;;;;;;15.15;69.28;100829.97;3572677;40;20420;-41
2021/04/20 09:23:32;;;;;;;15.90;9.10;;;;;;;15.33;67.75;100831.00;3572545;40;20798;-41
2021/04/20 09:26:16;;;;;;;13.45;9.05;;;;;;;15.43;65.98;100830.22;3573266;40;20056;-41
2021/04/20 09:28:59;;;;;;;14.43;8.88;;;;;;;15.54;68.95;100828.59;3571750;40;20057;-43
2021/04/20 09:31:34;;;;;;;13.50;9.63;;;;;;;16.05;65.31;100835.00;3573010;40;20057;-41
2021/04/20 09:34:03;;;;;;;13.52;9.15;;;;;;;16.17;65.92;100829.00;3573659;40;20057;-41
2021/04/20 09:36:31;;;;;;;14.88;9.55;;;;;;;16.37;63.59;100832.56;3573801;40;20056;-41
2021/04/20 09:39:01;;;;;;;13.70;9.52;;;;;;;16.57;63.02;100829.19;3573606;40;20092;-41
2021/04/20 09:41:35;;;;;;;12.20;9.43;;;;;;;15.22;66.60;100831.78;3573748;40;20089;-40
2021/04/20 09:44:20;;;;;;;16.92;11.10;;;;;;;15.72;68.36;100827.91;3573504;40;20101;-45
2021/04/20 09:46:47;;;;;;;15.45;9.77;;;;;;;16.72;62.03;100831.84;3572280;40;20049;-42
2021/04/20 09:49:35;;;;;;;12.43;8.63;;;;;;;17.92;59.72;100830.19;3572679;40;20081;-44
2021/04/20 09:52:09;;;;;;;13.75;8.68;;;;;;;21.16;52.96;100836.94;3573072;40;21601;-45
2021/04/20 09:54:44;;;;;;;13.85;8.85;;;;;;;21.14;49.31;100836.09;3571222;40;20100;-43
2021/04/20 09:57:14;;;;;;;13.98;8.93;;;;;;;19.84;53.01;100831.66;3573220;40;20052;-42
2021/04/20 09:59:57;;;;;;;12.50;8.88;;;;;;;23.76;43.60;100837.69;3573021;40;20041;-41
2021/04/20 10:03:00;;;;;;;14.90;8.73;;;;;;;26.44;37.25;100849.28;3573330;40;20068;-42
2021/04/20 10:05:46;;;;;;;12.82;8.93;;;;;;;27.01;33.84;100846.19;3573810;40;20061;-43
2021/04/20 10:08:35;;;;;;;12.52;9.32;;;;;;;26.38;35.55;100840.69;3577457;40;20068;-41
2021/04/20 10:11:48;;;;;;;12.23;8.23;;;;;;;27.43;34.19;100837.47;3576817;40;20053;-42
2021/04/20 10:14:21;;;;;;;14.57;9.20;;;;;;;26.29;36.21;100850.69;3552625;40;20060;-46
2021/04/20 10:17:14;;;;;;;10.18;8.25;;;;;;;26.80;34.40;100841.78;3573796;40;20049;-43
2021/04/20 10:19:49;;;;;;;16.45;9.07;;;;;;;27.60;34.01;100842.03;3571724;40;20053;-43
2021/04/20 10:22:49;;;;;;;11.07;8.63;;;;;;;26.36;33.84;100832.03;3572235;40;20057;-43
2021/04/20 10:25:35;;;;;;;12.10;9.73;;;;;;;27.62;33.01;100841.03;3573258;40;20080;-43
2021/04/20 10:28:44;;;;;;;10.75;9.10;;;;;;;27.89;33.19;100846.06;3573570;40;20068;-42
2021/04/20 10:31:16;;;;;;;14.73;8.40;;;;;;;28.73;31.85;100849.31;3558727;40;20395;-42
2021/04/20 10:33:47;;;;;;;10.82;8.73;;;;;;;30.11;30.73;100844.13;3573470;40;20061;-43
2021/04/20 10:36:15;;;;;;;10.65;9.18;;;;;;;28.99;29.12;100840.19;3572246;40;20068;-42
2021/04/20 10:38:43;;;;;;;14.82;9.25;;;;;;;26.78;33.88;100831.34;3573329;40;20072;-43
2021/04/20 10:41:30;;;;;;;11.05;9.05;;;;;;;27.54;31.47;100834.38;3573371;40;20049;-43
2021/04/20 10:43:58;;;;;;;9.23;8.20;;;;;;;31.12;26.82;100841.19;3572695;40;20084;-42
2021/04/20 10:46:27;;;;;;;12.93;8.85;;;;;;;30.17;27.32;100833.25;3573047;40;20335;-43
2021/04/20 10:48:57;;;;;;;10.95;8.80;;;;;;;27.84;31.57;100835.75;3573062;40;20063;-42
2021/04/20 10:51:54;;;;;;;8.93;8.02;;;;;;;28.94;29.51;100824.56;3573200;40;20060;-45
2021/04/20 10:54:22;;;;;;;13.38;8.05;;;;;;;28.21;32.83;100830.63;3572260;40;20108;-45
2021/04/20 10:56:54;;;;;;;13.43;9.13;;;;;;;30.64;26.51;100829.78;3573008;40;20063;-45
2021/04/20 10:59:30;;;;;;;12.45;8.98;;;;;;;29.31;27.75;100818.34;3573160;40;20083;-43
2021/04/20 11:02:04;;;;;;;13.30;8.65;;;;;;;29.50;28.60;100817.41;3573116;40;20375;-43
2021/04/20 11:04:34;;;;;;;12.07;8.57;;;;;;;31.60;26.31;100826.03;3573208;40;20445;-43
2021/04/20 11:07:22;;;;;;;13.18;9.30;;;;;;;31.25;26.07;100819.31;3573734;40;20073;-44
2021/04/20 11:09:57;;;;;;;10.32;9.25;;;;;;;32.10;24.23;100832.72;3571994;40;20094;-47
2021/04/20 11:12:25;;;;;;;9.82;8.82;;;;;;;29.67;29.13;100810.34;3574430;40;20085;-44
2021/04/20 11:14:53;;;;;;;11.70;8.98;;;;;;;29.62;27.57;100812.34;3574486;40;20414;-43
2021/04/20 11:17:42;;;;;;;10.98;9.45;;;;;;;30.96;25.60;100808.63;3574487;40;20109;-43
2021/04/20 11:20:33;;;;;;;10.57;8.77;;;;;;;31.02;27.03;100808.28;3574130;40;20350;-46
2021/04/20 11:23:06;;;;;;;11.18;9.45;;;;;;;30.00;28.97;100808.63;3574288;40;20326;-44
2021/04/20 11:25:42;;;;;;;12.25;9.52;;;;;;;31.75;25.54;100812.81;3572324;40;20091;-41
2021/04/20 11:28:37;;;;;;;;;;;;;;;30.13;26.95;100796.47;3574754;40;20153;-49
2021/04/20 11:31:08;;;;;;;11.55;8.60;;;;;;;30.67;27.22;100800.53;3560271;40;20007;-43
2021/04/20 11:33:46;;;;;;;12.95;9.63;;;;;;;28.37;30.15;100789.50;3571868;40;20060;-42
2021/04/20 11:36:29;;;;;;;14.85;9.18;;;;;;;30.77;26.26;100798.25;3573164;40;20053;-48
2021/04/20 11:39:16;;;;;;;12.68;9.55;;;;;;;30.38;28.45;100794.25;3574269;40;20434;-45
2021/04/20 11:42:03;;;;;;;13.48;9.73;;;;;;;29.52;29.12;100789.97;3572641;40;20090;-46
2021/04/20 11:44:49;;;;;;;11.07;9.10;;;;;;;29.77;30.02;100783.47;3574226;40;20056;-43